Terminal Aerodrome Forecast
Issued by NWS

Home | Current Version | Previous Version | Text Only | Print | Product List | Glossary On
Versions: 1 2 3 4 5 6 7 8 9 10 11 12 13 14 15 16 17 18 19 20 21
000
FTUS45 KBOU 211130
TAFBJC
TAF
KBJC 211130Z 2112/2212 24025G35KT P6SM FEW120 BKN200
     FM211400 27015G25KT P6SM FEW120 SCT220
     FM211600 30015G25KT P6SM FEW120
     FM220100 28010KT P6SM SCT200=

USA.gov is the U.S. government's official web portal to all federal, state and local government web resources and services.